createdAt,value
2022-12-10T00:01:17.748Z,25.77
2022-12-10T00:03:45.711Z,26.63
2022-12-10T00:06:15.207Z,26.17
2022-12-10T00:08:41.997Z,28.83
2022-12-10T00:11:12.666Z,24.73
2022-12-10T00:13:39.910Z,27.52
2022-12-10T00:16:09.560Z,31.63
2022-12-10T00:18:37.689Z,25.40
2022-12-10T00:21:09.862Z,29.15
2022-12-10T00:23:37.508Z,28.05
2022-12-10T00:26:08.618Z,26.95
2022-12-10T00:28:35.493Z,28.83
2022-12-10T00:31:15.345Z,27.05
2022-12-10T00:33:43.058Z,31.58
2022-12-10T00:36:17.665Z,26.15
2022-12-10T00:38:45.347Z,27.27
2022-12-10T00:41:13.282Z,31.40
2022-12-10T00:43:41.094Z,31.40
2022-12-10T00:46:08.244Z,25.63
2022-12-10T00:48:35.539Z,29.52
2022-12-10T00:51:23.099Z,26.55
2022-12-10T00:53:51.322Z,30.25
2022-12-10T00:56:21.062Z,30.25
2022-12-10T00:58:48.404Z,28.65
2022-12-10T01:01:27.028Z,28.25
2022-12-10T01:03:57.368Z,29.73
2022-12-10T01:06:29.850Z,31.80
2022-12-10T01:08:59.572Z,32.70
2022-12-10T01:11:30.199Z,27.05
2022-12-10T01:16:27.487Z,31.17
2022-12-10T01:18:55.966Z,32.63
2022-12-10T01:21:22.987Z,30.40
2022-12-10T01:23:50.877Z,34.92
2022-12-10T01:26:21.211Z,28.60
2022-12-10T01:28:48.788Z,32.60
2022-12-10T01:31:24.350Z,31.73
2022-12-10T01:33:51.838Z,27.17
2022-12-10T01:36:42.313Z,29.45
2022-12-10T01:39:31.133Z,33.03
2022-12-10T01:42:18.947Z,27.02
2022-12-10T01:45:11.130Z,26.55
2022-12-10T01:47:57.908Z,30.05
2022-12-10T01:50:45.205Z,27.58
2022-12-10T01:53:13.281Z,27.02
2022-12-10T01:55:51.905Z,33.45
2022-12-10T01:58:20.311Z,28.52
2022-12-10T02:01:08.108Z,36.47
2022-12-10T02:04:06.239Z,30.38
2022-12-10T02:06:45.030Z,30.80
2022-12-10T02:09:36.627Z,28.95
2022-12-10T02:12:17.101Z,29.00
2022-12-10T02:15:11.167Z,30.20
2022-12-10T02:18:00.605Z,29.20
2022-12-10T02:20:35.091Z,37.08
2022-12-10T02:23:17.867Z,32.30
2022-12-10T02:26:05.863Z,36.92
2022-12-10T02:29:11.546Z,34.20
2022-12-10T02:31:42.696Z,33.75
2022-12-10T02:34:12.050Z,31.55
2022-12-10T02:36:43.740Z,32.92
2022-12-10T02:39:17.941Z,37.40
2022-12-10T02:41:54.128Z,36.00
2022-12-10T02:44:22.747Z,37.35
2022-12-10T02:46:52.810Z,34.75
2022-12-10T02:49:24.524Z,34.47
2022-12-10T02:51:51.273Z,31.55
2022-12-10T02:54:48.299Z,31.98
2022-12-10T02:57:37.392Z,33.63
2022-12-10T03:00:21.033Z,34.47
2022-12-10T03:03:15.140Z,31.33
2022-12-10T03:05:57.608Z,38.05
2022-12-10T03:09:00.560Z,31.75
2022-12-10T03:11:27.386Z,33.42
2022-12-10T03:14:04.990Z,37.90
2022-12-10T03:16:49.232Z,34.20
2022-12-10T03:19:21.281Z,33.65
2022-12-10T03:21:51.773Z,34.70
2022-12-10T03:24:19.987Z,39.78
2022-12-10T03:26:48.984Z,36.70
2022-12-10T03:29:23.099Z,33.22
2022-12-10T03:31:51.965Z,35.03
2022-12-10T03:34:18.816Z,34.70
2022-12-10T03:36:46.378Z,37.03
2022-12-10T03:39:14.159Z,35.78
2022-12-10T03:41:40.586Z,36.75
2022-12-10T03:44:07.875Z,36.40
2022-12-10T03:46:34.461Z,31.30
2022-12-10T03:49:02.363Z,31.10
2022-12-10T03:51:29.863Z,34.92
2022-12-10T03:53:57.438Z,34.50
2022-12-10T03:56:24.237Z,36.75
2022-12-10T03:58:50.769Z,35.95
2022-12-10T04:01:17.587Z,37.30
2022-12-10T04:03:45.147Z,37.47
2022-12-10T04:06:16.359Z,35.85
2022-12-10T04:08:42.873Z,37.30
2022-12-10T04:11:11.492Z,35.83
2022-12-10T04:13:57.618Z,35.75
2022-12-10T04:16:28.037Z,36.30
2022-12-10T04:21:48.726Z,34.28
2022-12-10T04:24:34.883Z,31.52
2022-12-10T04:27:07.878Z,37.20
2022-12-10T04:29:34.347Z,37.80
2022-12-10T04:32:01.457Z,38.28
2022-12-10T04:34:28.212Z,37.50
2022-12-10T04:36:54.894Z,40.83
2022-12-10T04:39:21.364Z,39.83
2022-12-10T04:41:49.704Z,39.72
2022-12-10T04:44:16.564Z,39.13
2022-12-10T04:46:43.326Z,37.83
2022-12-10T04:49:10.506Z,37.85
2022-12-10T04:51:37.416Z,38.45
2022-12-10T04:54:04.859Z,38.60
2022-12-10T04:56:31.361Z,38.05
2022-12-10T04:58:58.797Z,37.17
2022-12-10T05:01:26.121Z,36.42
2022-12-10T05:03:53.045Z,37.60
2022-12-10T05:06:20.887Z,36.92
2022-12-10T05:08:48.266Z,44.10
2022-12-10T05:11:18.105Z,35.92
2022-12-10T05:13:44.938Z,37.78
2022-12-10T05:16:13.907Z,40.40
2022-12-10T05:18:40.664Z,40.28
2022-12-10T05:21:11.643Z,41.55
2022-12-10T05:23:40.002Z,41.05
2022-12-10T05:26:12.382Z,38.25
2022-12-10T05:28:52.029Z,43.75
2022-12-10T05:31:26.847Z,33.38
2022-12-10T05:33:54.792Z,34.75
2022-12-10T05:36:24.922Z,35.17
2022-12-10T05:38:53.605Z,36.47
2022-12-10T05:41:22.588Z,38.22
2022-12-10T05:43:50.081Z,35.97
2022-12-10T05:46:19.883Z,35.95
2022-12-10T05:48:47.351Z,35.95
2022-12-10T05:51:17.091Z,31.92
2022-12-10T05:53:44.544Z,40.88
2022-12-10T05:56:14.509Z,35.20
2022-12-10T05:58:43.334Z,33.58
2022-12-10T06:01:16.028Z,39.08
2022-12-10T06:03:43.750Z,39.30
2022-12-10T06:06:10.588Z,36.15
2022-12-10T06:08:39.253Z,45.13
2022-12-10T06:11:10.910Z,35.30
2022-12-10T06:13:38.242Z,34.65
2022-12-10T06:16:12.554Z,34.15
2022-12-10T06:18:39.121Z,34.35
2022-12-10T06:21:10.951Z,33.78
2022-12-10T06:23:39.283Z,36.33
2022-12-10T06:26:17.138Z,37.33
2022-12-10T06:28:48.259Z,31.45
2022-12-10T06:31:16.229Z,38.63
2022-12-10T06:33:43.842Z,34.90
2022-12-10T06:36:12.253Z,31.10
2022-12-10T06:38:39.885Z,33.33
2022-12-10T06:41:08.779Z,34.47
2022-12-10T06:43:36.070Z,35.58
2022-12-10T06:46:08.217Z,37.40
2022-12-10T06:48:35.829Z,35.70
2022-12-10T06:51:02.974Z,32.75
2022-12-10T06:53:30.321Z,29.98
2022-12-10T06:56:00.022Z,31.13
2022-12-10T06:58:29.654Z,32.97
2022-12-10T07:01:04.122Z,33.60
2022-12-10T07:03:31.118Z,32.53
2022-12-10T07:05:59.499Z,36.17
2022-12-10T07:08:25.972Z,35.67
2022-12-10T07:10:53.310Z,35.58
2022-12-10T07:13:28.445Z,31.80
2022-12-10T07:15:57.900Z,35.42
2022-12-10T07:18:24.590Z,31.40
2022-12-10T07:20:51.035Z,32.13
2022-12-10T07:23:17.822Z,35.38
2022-12-10T07:25:44.270Z,32.70
2022-12-10T07:28:10.948Z,32.38
2022-12-10T07:30:37.466Z,37.78
2022-12-10T07:33:04.016Z,33.03
2022-12-10T07:35:30.770Z,33.80
2022-12-10T07:37:57.490Z,34.60
2022-12-10T07:40:24.581Z,34.88
2022-12-10T07:42:51.080Z,38.55
2022-12-10T07:45:17.912Z,38.85
2022-12-10T07:47:44.417Z,40.58
2022-12-10T07:50:11.259Z,33.80
2022-12-10T07:52:38.154Z,38.30
2022-12-10T07:55:05.208Z,38.40
2022-12-10T07:57:33.036Z,37.22
2022-12-10T07:59:59.972Z,37.30
2022-12-10T08:02:26.445Z,36.58
2022-12-10T08:04:52.975Z,38.72
2022-12-10T08:07:19.363Z,35.97
2022-12-10T08:09:46.038Z,38.25
2022-12-10T08:12:12.509Z,36.83
2022-12-10T08:14:38.971Z,34.47
2022-12-10T08:17:05.755Z,33.08
2022-12-10T08:19:32.223Z,36.35
2022-12-10T08:21:58.820Z,32.22
2022-12-10T08:24:25.232Z,32.78
2022-12-10T08:26:51.716Z,35.30
2022-12-10T08:29:18.461Z,30.30
2022-12-10T08:31:45.068Z,29.67
2022-12-10T08:34:17.494Z,28.95
2022-12-10T08:36:45.504Z,31.17
2022-12-10T08:39:17.410Z,30.05
2022-12-10T08:41:47.429Z,32.38
2022-12-10T08:44:14.887Z,32.85
2022-12-10T08:46:41.432Z,29.88
2022-12-10T08:49:08.145Z,28.50
2022-12-10T08:51:34.661Z,30.88
2022-12-10T08:54:01.205Z,32.25
2022-12-10T08:56:28.104Z,29.27
2022-12-10T08:58:55.025Z,29.40
2022-12-10T09:01:22.201Z,31.38
2022-12-10T09:03:48.785Z,32.38
2022-12-10T09:06:18.247Z,32.17
2022-12-10T09:08:45.055Z,27.83
2022-12-10T09:11:19.406Z,31.27
2022-12-10T09:13:45.908Z,30.75
2022-12-10T09:16:12.982Z,31.73
2022-12-10T09:18:40.278Z,29.90
2022-12-10T09:21:08.485Z,32.25
2022-12-10T09:23:35.431Z,29.67
2022-12-10T09:26:02.393Z,26.55
2022-12-10T09:28:28.872Z,27.08
2022-12-10T09:30:57.924Z,27.13
2022-12-10T09:33:25.223Z,27.60
2022-12-10T09:35:51.852Z,26.88
2022-12-10T09:38:19.076Z,30.25
2022-12-10T09:41:05.256Z,31.52
2022-12-10T09:43:48.522Z,34.67
2022-12-10T09:46:26.503Z,29.00
2022-12-10T09:49:13.458Z,25.90
2022-12-10T09:51:40.101Z,30.23
2022-12-10T09:54:26.583Z,29.88
2022-12-10T09:56:56.522Z,31.27
2022-12-10T09:59:30.715Z,33.20
2022-12-10T10:02:03.599Z,25.42
2022-12-10T10:04:30.501Z,28.75
2022-12-10T10:06:57.569Z,24.80
2022-12-10T10:09:25.060Z,25.95
2022-12-10T10:11:51.827Z,23.63
2022-12-10T10:14:28.387Z,27.83
2022-12-10T10:17:12.517Z,30.13
2022-12-10T10:19:40.489Z,27.30
2022-12-10T10:22:09.370Z,27.50
2022-12-10T10:24:46.412Z,28.17
2022-12-10T10:27:16.272Z,25.70
2022-12-10T10:29:50.872Z,24.88
2022-12-10T10:32:27.214Z,29.77
2022-12-10T10:35:00.048Z,27.50
2022-12-10T10:37:30.217Z,24.27
2022-12-10T10:39:57.742Z,22.73
2022-12-10T10:42:40.246Z,28.05
2022-12-10T10:45:35.398Z,28.17
2022-12-10T10:48:22.154Z,26.67
2022-12-10T10:50:55.899Z,25.42
2022-12-10T10:53:46.788Z,27.02
2022-12-10T10:56:30.350Z,28.92
2022-12-10T10:59:01.510Z,27.10
2022-12-10T11:02:00.144Z,29.35
2022-12-10T11:04:37.250Z,25.85
2022-12-10T11:07:13.507Z,27.13
2022-12-10T11:09:40.560Z,26.63
2022-12-10T11:12:27.150Z,26.67
2022-12-10T11:14:54.072Z,32.03
2022-12-10T11:17:24.650Z,25.83
2022-12-10T11:20:16.383Z,29.70
2022-12-10T11:22:57.207Z,26.30
2022-12-10T11:25:32.109Z,28.42
2022-12-10T11:28:18.897Z,32.55
2022-12-10T11:30:59.735Z,26.77
2022-12-10T11:33:48.274Z,26.10
2022-12-10T11:36:26.865Z,25.20
2022-12-10T11:39:21.852Z,26.73
2022-12-10T11:42:01.810Z,30.05
2022-12-10T11:44:43.977Z,26.40
2022-12-10T11:47:30.142Z,27.42
2022-12-10T11:50:21.889Z,25.92
2022-12-10T11:53:15.641Z,26.45
2022-12-10T11:55:59.386Z,25.85
2022-12-10T11:58:46.268Z,28.27
2022-12-10T12:01:31.556Z,24.08
2022-12-10T12:04:24.006Z,25.10
2022-12-10T12:09:56.823Z,26.83
2022-12-10T12:12:56.002Z,25.90
2022-12-10T12:15:39.968Z,24.60
2022-12-10T12:18:23.373Z,27.88
2022-12-10T12:20:59.342Z,23.92
2022-12-10T12:23:47.660Z,25.23
2022-12-10T12:26:20.484Z,25.98
2022-12-10T12:28:55.230Z,25.83
2022-12-10T12:31:30.579Z,22.13
2022-12-10T12:34:30.083Z,23.27
2022-12-10T12:36:56.656Z,31.60
2022-12-10T12:39:53.119Z,20.17
2022-12-10T12:42:37.603Z,21.08
2022-12-10T12:45:11.400Z,22.70
2022-12-10T12:47:46.842Z,25.60
2022-12-10T12:50:49.310Z,22.95
2022-12-10T12:53:19.276Z,22.85
2022-12-10T12:55:49.513Z,26.50
2022-12-10T12:58:34.986Z,26.77
2022-12-10T13:01:27.397Z,19.80
2022-12-10T13:03:56.611Z,22.52
2022-12-10T13:06:32.291Z,24.75
2022-12-10T13:09:27.653Z,19.63
2022-12-10T13:12:03.485Z,22.92
2022-12-10T13:14:31.846Z,21.17
2022-12-10T13:17:35.091Z,20.17
2022-12-10T13:20:34.602Z,23.90
2022-12-10T13:23:25.330Z,24.33
2022-12-10T13:25:54.297Z,24.95
2022-12-10T13:28:28.739Z,23.83
2022-12-10T13:31:15.742Z,23.98
2022-12-10T13:34:09.431Z,25.90
2022-12-10T13:36:51.684Z,21.10
2022-12-10T13:39:43.034Z,26.65
2022-12-10T13:42:28.491Z,23.40
2022-12-10T13:45:24.405Z,28.35
2022-12-10T13:48:15.266Z,23.92
2022-12-10T13:51:03.182Z,24.23
2022-12-10T13:53:48.624Z,30.27
2022-12-10T13:56:22.733Z,25.27
2022-12-10T13:58:56.108Z,27.38
2022-12-10T14:01:48.289Z,27.45
2022-12-10T14:04:27.369Z,27.95
2022-12-10T14:06:54.907Z,30.23
2022-12-10T14:09:27.186Z,28.25
2022-12-10T14:11:58.627Z,28.25
2022-12-10T14:14:39.933Z,27.70
2022-12-10T14:17:20.221Z,28.73
2022-12-10T14:19:50.345Z,26.38
2022-12-10T14:22:21.335Z,23.40
2022-12-10T14:24:50.878Z,23.70
2022-12-10T14:27:26.007Z,25.77
2022-12-10T14:30:07.512Z,26.92
2022-12-10T14:32:39.469Z,28.27
2022-12-10T14:35:12.119Z,26.13
2022-12-10T14:37:43.060Z,23.20
2022-12-10T14:40:11.035Z,27.40
2022-12-10T14:42:41.011Z,22.00
2022-12-10T14:45:08.796Z,24.27
2022-12-10T14:47:46.832Z,23.17
2022-12-10T14:50:17.431Z,25.48
2022-12-10T14:52:46.671Z,21.40
2022-12-10T14:55:20.675Z,22.23
2022-12-10T14:57:57.998Z,25.65
2022-12-10T15:00:24.920Z,20.17
2022-12-10T15:02:57.269Z,19.88
2022-12-10T15:05:28.177Z,19.13
2022-12-10T15:08:03.825Z,20.25
2022-12-10T15:10:37.509Z,23.60
2022-12-10T15:13:06.133Z,19.58
2022-12-10T15:15:38.897Z,19.77
2022-12-10T15:18:08.959Z,19.73
2022-12-10T15:20:48.484Z,24.73
2022-12-10T15:23:29.530Z,18.90
2022-12-10T15:26:04.479Z,21.83
2022-12-10T15:28:34.126Z,23.15
2022-12-10T15:31:25.808Z,26.90
2022-12-10T15:33:55.497Z,21.27
2022-12-10T15:36:36.128Z,24.30
2022-12-10T15:39:12.008Z,23.35
2022-12-10T15:41:43.014Z,21.70
2022-12-10T15:44:41.112Z,22.02
2022-12-10T15:47:17.395Z,22.67
2022-12-10T15:49:44.899Z,23.63
2022-12-10T15:52:20.982Z,30.60
2022-12-10T15:54:49.818Z,26.55
2022-12-10T15:57:30.969Z,28.17
2022-12-10T16:00:00.392Z,24.65
2022-12-10T16:02:45.707Z,27.42
2022-12-10T16:05:18.344Z,23.25
2022-12-10T16:07:47.544Z,25.10
2022-12-10T16:10:17.410Z,25.83
2022-12-10T16:12:48.532Z,24.63
2022-12-10T16:15:22.237Z,21.23
2022-12-10T16:17:48.995Z,26.63
2022-12-10T16:20:20.271Z,24.90
2022-12-10T16:22:48.301Z,24.00
2022-12-10T16:25:15.844Z,28.20
2022-12-10T16:27:43.830Z,29.40
2022-12-10T16:30:47.893Z,24.08
2022-12-10T16:33:15.529Z,24.60
2022-12-10T16:35:43.461Z,22.77
2022-12-10T16:38:11.254Z,21.10
2022-12-10T16:40:39.571Z,23.30
2022-12-10T16:43:07.950Z,24.40
2022-12-10T16:45:39.609Z,25.10
2022-12-10T16:48:07.062Z,27.00
2022-12-10T16:50:34.282Z,22.38
2022-12-10T16:53:08.341Z,21.15
2022-12-10T16:55:35.057Z,25.33
2022-12-10T16:58:02.356Z,24.20
2022-12-10T17:00:29.130Z,24.25
2022-12-10T17:02:56.249Z,20.70
2022-12-10T17:05:32.717Z,24.85
2022-12-10T17:07:59.361Z,29.08
2022-12-10T17:10:45.186Z,23.55
2022-12-10T17:13:13.448Z,22.65
2022-12-10T17:15:40.857Z,25.50
2022-12-10T17:18:14.139Z,23.45
2022-12-10T17:20:40.658Z,27.30
2022-12-10T17:23:07.532Z,21.88
2022-12-10T17:25:34.840Z,27.10
2022-12-10T17:28:04.720Z,26.40
2022-12-10T17:30:31.350Z,28.83
2022-12-10T17:32:57.993Z,24.92
2022-12-10T17:35:24.953Z,26.92
2022-12-10T17:37:54.118Z,24.48
2022-12-10T17:40:23.593Z,26.73
2022-12-10T17:42:51.043Z,22.20
2022-12-10T17:45:22.559Z,23.65
2022-12-10T17:47:49.873Z,23.67
2022-12-10T17:50:33.905Z,24.75
2022-12-10T17:53:01.695Z,22.65
2022-12-10T17:55:29.109Z,26.50
2022-12-10T17:57:59.137Z,25.40
2022-12-10T18:00:31.127Z,25.67
2022-12-10T18:02:57.802Z,25.77
2022-12-10T18:05:24.857Z,25.35
2022-12-10T18:07:51.887Z,24.48
2022-12-10T18:10:30.998Z,24.85
2022-12-10T18:12:57.978Z,25.88
2022-12-10T18:15:26.499Z,25.25
2022-12-10T18:17:53.735Z,33.60
2022-12-10T18:20:24.904Z,24.77
2022-12-10T18:22:52.897Z,23.63
2022-12-10T18:25:22.859Z,24.80
2022-12-10T18:27:51.178Z,25.45
2022-12-10T18:30:20.962Z,24.35
2022-12-10T18:32:47.924Z,27.33
2022-12-10T18:35:14.916Z,22.30
2022-12-10T18:37:42.235Z,24.50
2022-12-10T18:40:15.619Z,25.73
2022-12-10T18:42:47.097Z,23.65
2022-12-10T18:45:14.732Z,27.73
2022-12-10T18:47:42.116Z,23.95
2022-12-10T18:50:29.668Z,22.48
2022-12-10T18:52:56.873Z,26.20
2022-12-10T18:55:24.758Z,24.33
2022-12-10T18:58:04.458Z,26.48
2022-12-10T19:00:35.544Z,26.08
2022-12-10T19:03:03.880Z,30.13
2022-12-10T19:05:31.306Z,28.05
2022-12-10T19:07:57.839Z,28.73
2022-12-10T19:10:26.139Z,27.23
2022-12-10T19:12:53.362Z,26.75
2022-12-10T19:15:22.054Z,26.67
2022-12-10T19:17:49.491Z,29.73
2022-12-10T19:20:22.878Z,31.00
2022-12-10T19:22:50.674Z,26.70
2022-12-10T19:25:17.333Z,29.50
2022-12-10T19:27:44.416Z,29.48
2022-12-10T19:30:16.261Z,29.08
2022-12-10T19:32:43.657Z,31.10
2022-12-10T19:35:16.220Z,27.27
2022-12-10T19:37:44.884Z,30.98
2022-12-10T19:40:19.213Z,29.02
2022-12-10T19:42:49.352Z,29.27
2022-12-10T19:45:17.405Z,28.63
2022-12-10T19:47:44.856Z,30.50
2022-12-10T19:50:17.639Z,30.83
2022-12-10T19:52:45.446Z,26.65
2022-12-10T19:55:16.722Z,28.42
2022-12-10T19:57:44.501Z,32.33
2022-12-10T20:00:23.301Z,25.70
2022-12-10T20:02:51.119Z,25.80
2022-12-10T20:05:18.409Z,29.38
2022-12-10T20:07:46.532Z,29.58
2022-12-10T20:10:19.234Z,26.98
2022-12-10T20:12:45.922Z,28.85
2022-12-10T20:15:13.282Z,32.38
2022-12-10T20:17:40.692Z,31.55
2022-12-10T20:20:07.992Z,29.48
2022-12-10T20:22:34.855Z,32.58
2022-12-10T20:25:01.883Z,31.13
2022-12-10T20:27:28.307Z,27.55
2022-12-10T20:29:55.373Z,30.83
2022-12-10T20:32:22.358Z,31.73
2022-12-10T20:34:48.846Z,34.55
2022-12-10T20:37:15.587Z,29.38
2022-12-10T20:39:46.589Z,27.98
2022-12-10T20:42:20.085Z,32.70
2022-12-10T20:44:46.470Z,30.85
2022-12-10T20:47:13.337Z,33.60
2022-12-10T20:49:40.518Z,33.35
2022-12-10T20:52:07.085Z,30.25
2022-12-10T20:54:34.225Z,34.58
2022-12-10T20:57:00.763Z,35.75
2022-12-10T20:59:31.214Z,38.92
2022-12-10T21:04:25.343Z,33.92
2022-12-10T21:06:52.127Z,36.15
2022-12-10T21:09:18.672Z,35.92
2022-12-10T21:11:45.653Z,38.55
2022-12-10T21:14:50.976Z,40.67
2022-12-10T21:16:59.296Z,43.10
2022-12-10T21:19:29.783Z,43.28
2022-12-10T21:21:56.495Z,41.38
2022-12-10T21:24:23.235Z,43.85
2022-12-10T21:26:49.725Z,42.60
2022-12-10T21:29:17.062Z,40.35
2022-12-10T21:31:45.053Z,38.20
2022-12-10T21:34:11.505Z,37.45
2022-12-10T21:36:38.796Z,36.20
2022-12-10T21:39:05.645Z,35.60
2022-12-10T21:41:50.889Z,39.53
2022-12-10T21:44:17.450Z,32.15
2022-12-10T21:46:44.372Z,37.30
2022-12-10T21:49:12.211Z,34.40
2022-12-10T21:51:40.357Z,38.50
2022-12-10T21:54:08.410Z,37.50
2022-12-10T21:56:35.566Z,40.53
2022-12-10T21:59:02.508Z,34.17
2022-12-10T22:01:29.051Z,40.00
2022-12-10T22:03:55.549Z,42.22
2022-12-10T22:06:28.368Z,45.22
2022-12-10T22:08:55.062Z,39.60
2022-12-10T22:11:21.515Z,44.58
2022-12-10T22:13:48.477Z,46.95
2022-12-10T22:16:15.016Z,39.00
2022-12-10T22:18:41.619Z,43.95
2022-12-10T22:21:09.061Z,43.03
2022-12-10T22:23:35.672Z,43.90
2022-12-10T22:26:08.683Z,41.83
2022-12-10T22:28:35.128Z,40.67
2022-12-10T22:31:06.845Z,38.58
2022-12-10T22:33:33.841Z,40.30
2022-12-10T22:36:00.361Z,39.42
2022-12-10T22:38:27.017Z,39.97
2022-12-10T22:40:53.831Z,40.05
2022-12-10T22:43:49.166Z,40.13
2022-12-10T22:46:07.077Z,43.72
2022-12-10T22:48:33.720Z,39.15
2022-12-10T22:51:02.457Z,38.38
2022-12-10T22:53:30.008Z,40.47
2022-12-10T22:55:58.479Z,41.58
2022-12-10T22:58:26.050Z,43.50
2022-12-10T23:00:52.748Z,39.75
2022-12-10T23:03:19.465Z,39.35
2022-12-10T23:05:48.043Z,40.08
2022-12-10T23:08:15.109Z,39.33
2022-12-10T23:10:41.841Z,42.25
2022-12-10T23:13:10.914Z,41.40
2022-12-10T23:15:40.556Z,44.40
2022-12-10T23:18:07.661Z,46.03
2022-12-10T23:20:35.468Z,40.88
2022-12-10T23:23:02.459Z,45.83
2022-12-10T23:25:29.586Z,39.03
2022-12-10T23:27:56.540Z,41.05
2022-12-10T23:30:23.208Z,46.00
2022-12-10T23:32:50.339Z,45.40
2022-12-10T23:35:17.012Z,51.45
2022-12-10T23:37:43.950Z,40.00
2022-12-10T23:40:10.969Z,44.55
2022-12-10T23:42:37.447Z,46.47
2022-12-10T23:45:04.423Z,45.45
2022-12-10T23:47:31.411Z,45.85
2022-12-10T23:49:58.249Z,43.95
2022-12-10T23:52:24.928Z,45.28
2022-12-10T23:54:51.487Z,41.78
2022-12-10T23:57:18.721Z,42.38
2022-12-10T23:59:45.115Z,43.17
